Decimomannu Airport LIED

Flugplatz Daten

Name: Decimomannu Airport

Ident: LIED

Lat: 39,35419846

Long: 8,97247982

Platzhöhe: 100 ft

IataCode: DCI

City: Decimomannu

Metar

2021/08/05 12:55
LIED 051255Z 33013KT 9999 FEW030 33/15 Q1013 RMK FEW VIS MIN 9999 WIND THR35 34013KT WIND THR17 34013KT BLU

Taf

2021/01/17 03:30
TAF TAF LIED 170500Z 1703/1715 03003KT 9999 FEW020 SCT040
TEMPO 1706/1710 RA SCT020 BKN060
BECMG 1708/1710 33018KT
TEMPO 1710/1715 33025G35KT
TEMPO 1713/1715 RA
Gewünschte Webcam nicht vorhanden? Dann fügen Sie eine hinzu. Sie wird dann so schnell wie möglich freigeschaltet
Url: Title: